Time;durP1;ratioP1;P1;durP2;ratioP2;P2;SDS_P1;SDS_P2;PMS_P1;PMS_P2;Temp;Humidity;BMP_temperature;BMP_pressure;BME280_temperature;BME280_humidity;BME280_pressure;Samples;Min_cycle;Max_cycle;Signal;HPM_P1;HPM_P2
2021/01/02 00:02:09;;;;;;;50.90;19.48;;;;;;;;;;5047068;28;20028;-68
2021/01/02 00:04:55;;;;;;;49.55;17.80;;;;;;;;;;5046462;28;20450;-67
2021/01/02 00:07:39;;;;;;;58.15;22.40;;;;;;;;;;5037048;28;20764;-68
2021/01/02 00:10:04;;;;;;;14.05;7.93;;;;;;;;;;5047380;28;20492;-67
2021/01/02 00:12:39;;;;;;;19.35;9.52;;;;;;;;;;5047045;28;20017;-68
2021/01/02 00:15:07;;;;;;;48.78;22.35;;;;;;;;;;5047446;28;20029;-67
2021/01/02 00:17:43;;;;;;;21.40;10.50;;;;;;;;;;5047517;28;20037;-67
2021/01/02 00:20:27;;;;;;;46.70;14.90;;;;;;;;;;5046580;28;20029;-70
2021/01/02 00:22:54;;;;;;;36.78;14.35;;;;;;;;;;5046521;28;20082;-68
2021/01/02 00:25:23;;;;;;;46.63;21.17;;;;;;;;;;5046594;28;20485;-67
2021/01/02 00:28:08;;;;;;;40.20;17.15;;;;;;;;;;5046983;28;20024;-68
2021/01/02 00:30:36;;;;;;;56.47;21.55;;;;;;;;;;5047518;28;20282;-68
2021/01/02 00:33:13;;;;;;;48.30;20.65;;;;;;;;;;5047230;28;20021;-68
2021/01/02 00:35:38;;;;;;;40.75;16.30;;;;;;;;;;5047663;28;20525;-68
2021/01/02 00:38:07;;;;;;;28.38;11.77;;;;;;;;;;5046276;28;20082;-68
2021/01/02 00:40:34;;;;;;;42.30;19.30;;;;;;;;;;5047629;28;20044;-68
2021/01/02 00:42:59;;;;;;;56.03;23.42;;;;;;;;;;5035578;28;20109;-68
2021/01/02 00:45:26;;;;;;;63.95;22.00;;;;;;;;;;5045560;28;20162;-67
2021/01/02 00:47:51;;;;;;;56.75;21.65;;;;;;;;;;5046850;28;20036;-68
2021/01/02 00:50:18;;;;;;;60.17;24.98;;;;;;;;;;5046600;28;20029;-68
2021/01/02 00:52:46;;;;;;;39.00;14.55;;;;;;;;;;5045575;28;20032;-67
2021/01/02 00:55:29;;;;;;;47.83;20.55;;;;;;;;;;5046499;28;20029;-67
2021/01/02 00:58:05;;;;;;;50.33;21.83;;;;;;;;;;5044176;28;20017;-67
2021/01/02 01:00:35;;;;;;;48.33;19.05;;;;;;;;;;5047075;28;20032;-67
2021/01/02 01:03:03;;;;;;;51.67;20.08;;;;;;;;;;5046526;28;20040;-67
2021/01/02 01:05:35;;;;;;;47.90;20.33;;;;;;;;;;5046705;28;20029;-68
2021/01/02 01:08:01;;;;;;;37.47;16.17;;;;;;;;;;5046486;28;20020;-67
2021/01/02 01:10:30;;;;;;;48.80;18.92;;;;;;;;;;5046678;28;20029;-67
2021/01/02 01:12:58;;;;;;;55.27;23.00;;;;;;;;;;5045440;28;20071;-67
2021/01/02 01:15:24;;;;;;;48.63;21.98;;;;;;;;;;5046986;28;20116;-68
2021/01/02 01:18:09;;;;;;;44.83;20.52;;;;;;;;;;5049045;28;20448;-67
2021/01/02 01:20:38;;;;;;;15.20;7.65;;;;;;;;;;5035107;28;20043;-67
2021/01/02 01:23:12;;;;;;;45.55;16.85;;;;;;;;;;5050311;28;20033;-67
2021/01/02 01:25:39;;;;;;;48.75;22.08;;;;;;;;;;5049621;28;20021;-67
2021/01/02 01:28:08;;;;;;;57.25;19.52;;;;;;;;;;5051031;28;20055;-67
2021/01/02 01:30:38;;;;;;;40.35;16.95;;;;;;;;;;5050803;28;20025;-67
2021/01/02 01:33:03;;;;;;;32.13;12.67;;;;;;;;;;5049741;28;20039;-67
2021/01/02 01:35:29;;;;;;;48.28;18.10;;;;;;;;;;5052531;28;20033;-68
2021/01/02 01:37:55;;;;;;;37.38;14.88;;;;;;;;;;5051210;28;20032;-67
2021/01/02 01:40:25;;;;;;;44.95;17.85;;;;;;;;;;5052568;28;20492;-67
2021/01/02 01:43:01;;;;;;;47.75;19.30;;;;;;;;;;5051649;28;20017;-67
2021/01/02 01:45:38;;;;;;;52.47;21.73;;;;;;;;;;5051653;28;20040;-67
2021/01/02 01:48:10;;;;;;;47.65;18.48;;;;;;;;;;5049997;28;20021;-67
2021/01/02 01:50:45;;;;;;;50.20;22.38;;;;;;;;;;5047979;28;20106;-67
2021/01/02 01:53:16;;;;;;;36.47;15.55;;;;;;;;;;5044367;28;20481;-67
2021/01/02 01:56:00;;;;;;;53.22;21.05;;;;;;;;;;5051448;28;20130;-67
2021/01/02 01:58:36;;;;;;;47.22;19.70;;;;;;;;;;5051504;28;20107;-67
2021/01/02 02:01:02;;;;;;;45.20;19.90;;;;;;;;;;5051474;28;20048;-67
2021/01/02 02:03:33;;;;;;;30.98;11.27;;;;;;;;;;5051034;28;20047;-67
2021/01/02 02:05:58;;;;;;;;;;;;;;;;;;5051867;28;20079;-67
2021/01/02 02:08:25;;;;;;;45.35;15.43;;;;;;;;;;5050524;28;21041;-67
2021/01/02 02:11:02;;;;;;;41.35;17.80;;;;;;;;;;5049876;28;20098;-67
2021/01/02 02:13:29;;;;;;;51.00;19.63;;;;;;;;;;5051487;28;20470;-67
2021/01/02 02:15:58;;;;;;;50.38;20.85;;;;;;;;;;5051109;28;20503;-67
2021/01/02 02:18:24;;;;;;;48.00;20.58;;;;;;;;;;5051132;28;20021;-67
2021/01/02 02:20:52;;;;;;;50.85;20.77;;;;;;;;;;5051863;28;20017;-67
2021/01/02 02:23:22;;;;;;;49.00;20.83;;;;;;;;;;5050960;28;20017;-67
2021/01/02 02:25:47;;;;;;;47.17;19.40;;;;;;;;;;5051138;28;20542;-67
2021/01/02 02:28:24;;;;;;;47.75;20.15;;;;;;;;;;5050849;28;20112;-67
2021/01/02 02:30:54;;;;;;;59.60;19.77;;;;;;;;;;5049419;28;20063;-67
2021/01/02 02:33:20;;;;;;;31.65;14.18;;;;;;;;;;5051287;28;20025;-67
2021/01/02 02:35:45;;;;;;;56.10;23.60;;;;;;;;;;5050758;28;20078;-67
2021/01/02 02:38:12;;;;;;;46.72;21.95;;;;;;;;;;5050555;28;20017;-68
2021/01/02 02:40:37;;;;;;;43.97;17.40;;;;;;;;;;5050572;28;20029;-68
2021/01/02 02:43:03;;;;;;;41.53;17.15;;;;;;;;;;5050698;28;20028;-67
2021/01/02 02:45:29;;;;;;;59.55;20.25;;;;;;;;;;5051018;28;20025;-67
2021/01/02 02:47:56;;;;;;;52.25;20.77;;;;;;;;;;5049968;28;20055;-67
2021/01/02 02:50:26;;;;;;;46.55;18.48;;;;;;;;;;5050173;28;20025;-67
2021/01/02 02:53:03;;;;;;;45.57;19.73;;;;;;;;;;5050687;28;20032;-67
2021/01/02 02:55:28;;;;;;;45.90;18.27;;;;;;;;;;5049844;28;20028;-67
2021/01/02 02:57:53;;;;;;;45.85;19.42;;;;;;;;;;5050767;28;20033;-68
2021/01/02 03:00:19;;;;;;;37.17;14.95;;;;;;;;;;5050288;28;20032;-67
2021/01/02 03:02:48;;;;;;;50.60;20.95;;;;;;;;;;5050402;28;20096;-67
2021/01/02 03:05:14;;;;;;;48.55;20.83;;;;;;;;;;5050460;28;20032;-67
2021/01/02 03:07:43;;;;;;;45.03;21.80;;;;;;;;;;5049820;28;20017;-67
2021/01/02 03:10:09;;;;;;;47.75;20.10;;;;;;;;;;5049602;28;20095;-67
2021/01/02 03:12:44;;;;;;;46.67;14.55;;;;;;;;;;5049730;28;20096;-67
2021/01/02 03:15:10;;;;;;;51.22;19.95;;;;;;;;;;5050508;28;20020;-67
2021/01/02 03:17:35;;;;;;;50.83;20.48;;;;;;;;;;5049854;28;20024;-67
2021/01/02 03:20:00;;;;;;;49.38;17.30;;;;;;;;;;5050261;28;20017;-68
2021/01/02 03:22:25;;;;;;;19.13;6.60;;;;;;;;;;5049633;28;20028;-68
2021/01/02 03:24:51;;;;;;;45.33;18.25;;;;;;;;;;5048781;28;20477;-67
2021/01/02 03:27:16;;;;;;;41.25;18.83;;;;;;;;;;5049978;28;20048;-68
2021/01/02 03:29:41;;;;;;;40.85;16.73;;;;;;;;;;5049598;28;20099;-67
2021/01/02 03:32:06;;;;;;;38.88;17.90;;;;;;;;;;5050546;28;20020;-67
2021/01/02 03:34:35;;;;;;;40.50;17.92;;;;;;;;;;5059944;22;20095;-66
2021/01/02 03:37:01;;;;;;;45.55;18.45;;;;;;;;;;5037058;28;20389;-66
2021/01/02 03:39:26;;;;;;;47.08;18.23;;;;;;;;;;5033722;28;20018;-64
2021/01/02 03:41:51;;;;;;;40.55;16.58;;;;;;;;;;5032266;28;20021;-63
2021/01/02 03:44:16;;;;;;;43.80;18.20;;;;;;;;;;5030514;28;20013;-64
2021/01/02 03:46:41;;;;;;;45.05;22.85;;;;;;;;;;5029912;28;20564;-64
2021/01/02 03:49:06;;;;;;;51.45;21.15;;;;;;;;;;5029718;28;20047;-63
2021/01/02 03:51:32;;;;;;;49.80;18.50;;;;;;;;;;5028936;28;20100;-63
2021/01/02 03:53:57;;;;;;;50.65;22.98;;;;;;;;;;5029374;28;20018;-63
2021/01/02 03:56:22;;;;;;;54.78;20.20;;;;;;;;;;5029423;28;20029;-64
2021/01/02 03:58:49;;;;;;;51.15;22.05;;;;;;;;;;5028673;28;20497;-63
2021/01/02 04:01:14;;;;;;;51.72;21.98;;;;;;;;;;5028931;28;20025;-63
2021/01/02 04:03:40;;;;;;;52.35;21.25;;;;;;;;;;5028885;28;20362;-63
2021/01/02 04:06:05;;;;;;;47.25;22.25;;;;;;;;;;5029345;28;20543;-63
2021/01/02 04:08:30;;;;;;;55.40;21.50;;;;;;;;;;5028808;28;20017;-64
2021/01/02 04:10:55;;;;;;;45.45;20.55;;;;;;;;;;5029534;28;20018;-63
2021/01/02 04:13:20;;;;;;;52.53;22.02;;;;;;;;;;5029790;28;20108;-63
2021/01/02 04:15:45;;;;;;;51.13;20.77;;;;;;;;;;5028514;28;20025;-63
2021/01/02 04:18:11;;;;;;;46.55;20.88;;;;;;;;;;5028977;28;20099;-63
2021/01/02 04:20:36;;;;;;;43.70;18.85;;;;;;;;;;5028674;28;20022;-63
2021/01/02 04:23:01;;;;;;;45.42;18.15;;;;;;;;;;5028679;28;20025;-64
2021/01/02 04:25:26;;;;;;;48.22;19.65;;;;;;;;;;5029164;28;20071;-63
2021/01/02 04:27:51;;;;;;;50.40;19.23;;;;;;;;;;5029233;28;20049;-64
2021/01/02 04:30:17;;;;;;;52.47;22.10;;;;;;;;;;5028907;28;20025;-63
2021/01/02 04:32:45;;;;;;;52.97;22.13;;;;;;;;;;5029098;28;20645;-64
2021/01/02 04:35:11;;;;;;;47.95;19.75;;;;;;;;;;5029672;28;20091;-64
2021/01/02 04:37:36;;;;;;;45.03;18.88;;;;;;;;;;5028956;28;20021;-64
2021/01/02 04:40:02;;;;;;;44.80;18.73;;;;;;;;;;5029086;28;20044;-63
2021/01/02 04:42:27;;;;;;;50.30;19.60;;;;;;;;;;5029247;28;20033;-62
2021/01/02 04:44:53;;;;;;;46.38;19.65;;;;;;;;;;5028053;28;20025;-63
2021/01/02 04:47:18;;;;;;;49.42;19.80;;;;;;;;;;5029513;28;20033;-63
2021/01/02 04:49:44;;;;;;;46.00;18.83;;;;;;;;;;5029131;28;20026;-63
2021/01/02 04:52:10;;;;;;;46.28;19.33;;;;;;;;;;5032872;28;20026;-63
2021/01/02 04:54:37;;;;;;;46.55;19.00;;;;;;;;;;5032674;28;20018;-63
2021/01/02 04:57:02;;;;;;;46.55;18.27;;;;;;;;;;5032327;28;20052;-63
2021/01/02 04:59:28;;;;;;;46.05;17.27;;;;;;;;;;5032837;28;20486;-63
2021/01/02 05:01:54;;;;;;;40.47;17.35;;;;;;;;;;5032175;28;20021;-63
2021/01/02 05:04:19;;;;;;;47.42;19.55;;;;;;;;;;5032677;28;20044;-63
2021/01/02 05:06:45;;;;;;;51.00;21.05;;;;;;;;;;5032489;28;20048;-63
2021/01/02 05:09:10;;;;;;;45.92;20.00;;;;;;;;;;5032431;28;20021;-63
2021/01/02 05:11:36;;;;;;;47.15;21.95;;;;;;;;;;5032247;28;20097;-63
2021/01/02 05:14:02;;;;;;;48.00;18.85;;;;;;;;;;5032853;28;20017;-63
2021/01/02 05:16:35;;;;;;;45.90;18.60;;;;;;;;;;5032803;28;20029;-63
2021/01/02 05:19:11;;;;;;;50.38;19.75;;;;;;;;;;5032405;28;20017;-62
2021/01/02 05:21:37;;;;;;;32.17;13.05;;;;;;;;;;5032791;28;20026;-64
2021/01/02 05:24:20;;;;;;;47.72;19.23;;;;;;;;;;5032730;28;20053;-64
2021/01/02 05:26:54;;;;;;;42.33;16.25;;;;;;;;;;5027124;28;20025;-63
2021/01/02 05:29:23;;;;;;;48.92;18.58;;;;;;;;;;5031705;28;20075;-63
2021/01/02 05:31:49;;;;;;;41.72;18.60;;;;;;;;;;5032291;28;20381;-64
2021/01/02 05:34:15;;;;;;;44.50;17.55;;;;;;;;;;5032280;28;20521;-64
2021/01/02 05:36:41;;;;;;;49.53;21.38;;;;;;;;;;5032083;28;20045;-64
2021/01/02 05:39:07;;;;;;;48.47;20.60;;;;;;;;;;5031992;28;20053;-63
2021/01/02 05:41:52;;;;;;;43.67;19.30;;;;;;;;;;5031971;28;20085;-63
2021/01/02 05:44:18;;;;;;;49.15;19.67;;;;;;;;;;5031777;28;20024;-64
2021/01/02 05:46:44;;;;;;;45.33;20.00;;;;;;;;;;5031479;28;20625;-63
2021/01/02 05:49:29;;;;;;;46.30;18.60;;;;;;;;;;5031967;28;20029;-64
2021/01/02 05:51:58;;;;;;;46.47;17.48;;;;;;;;;;5032195;28;20018;-64
2021/01/02 05:54:27;;;;;;;48.00;19.73;;;;;;;;;;5031225;28;20087;-63
2021/01/02 05:56:55;;;;;;;47.90;19.40;;;;;;;;;;5031556;28;20036;-64
2021/01/02 05:59:30;;;;;;;61.97;21.02;;;;;;;;;;5031403;28;20118;-64
2021/01/02 06:01:55;;;;;;;52.85;19.02;;;;;;;;;;5030029;28;20036;-64
2021/01/02 06:04:20;;;;;;;51.08;20.52;;;;;;;;;;5032269;28;20025;-64
2021/01/02 06:06:45;;;;;;;50.08;19.75;;;;;;;;;;5031576;28;20021;-65
2021/01/02 06:09:11;;;;;;;57.78;21.15;;;;;;;;;;5031523;28;20021;-64
2021/01/02 06:11:38;;;;;;;56.50;21.15;;;;;;;;;;5029731;28;20021;-64
2021/01/02 06:14:04;;;;;;;56.70;20.13;;;;;;;;;;5031541;28;20477;-64
2021/01/02 06:16:30;;;;;;;49.60;19.58;;;;;;;;;;5031084;28;20029;-64
2021/01/02 06:18:55;;;;;;;52.20;20.90;;;;;;;;;;5031061;28;20533;-64
2021/01/02 06:21:21;;;;;;;49.67;19.90;;;;;;;;;;5030551;28;20041;-64
2021/01/02 06:23:47;;;;;;;49.47;20.48;;;;;;;;;;5030798;28;20071;-64
2021/01/02 06:26:13;;;;;;;56.45;22.63;;;;;;;;;;5031423;28;20025;-64
2021/01/02 06:28:40;;;;;;;54.47;21.67;;;;;;;;;;5031306;28;20437;-64
2021/01/02 06:31:06;;;;;;;52.15;22.30;;;;;;;;;;5030915;28;20023;-64
2021/01/02 06:33:31;;;;;;;45.88;20.40;;;;;;;;;;5030574;28;20075;-64
2021/01/02 06:35:57;;;;;;;56.40;22.05;;;;;;;;;;5030884;28;20021;-64
2021/01/02 06:38:22;;;;;;;63.20;23.88;;;;;;;;;;5030757;28;20056;-64
2021/01/02 06:40:48;;;;;;;51.38;20.23;;;;;;;;;;5031001;28;20025;-64
2021/01/02 06:43:15;;;;;;;53.30;21.60;;;;;;;;;;5031123;28;20609;-64
2021/01/02 06:45:40;;;;;;;46.85;18.83;;;;;;;;;;5030769;28;20064;-64
2021/01/02 06:48:08;;;;;;;51.42;17.02;;;;;;;;;;5030738;28;20405;-64
2021/01/02 06:50:33;;;;;;;50.88;20.02;;;;;;;;;;5030619;28;20025;-64
2021/01/02 06:53:16;;;;;;;56.00;21.98;;;;;;;;;;5030705;28;20025;-64
2021/01/02 06:55:41;;;;;;;45.88;19.48;;;;;;;;;;5027711;28;20060;-64
2021/01/02 06:58:17;;;;;;;46.80;18.35;;;;;;;;;;5030547;28;20048;-64
2021/01/02 07:00:42;;;;;;;52.92;20.67;;;;;;;;;;5029572;28;20136;-64
2021/01/02 07:03:27;;;;;;;51.80;19.50;;;;;;;;;;5031106;28;20136;-64
2021/01/02 07:05:53;;;;;;;60.45;21.95;;;;;;;;;;5016615;28;20515;-64
2021/01/02 07:08:36;;;;;;;54.03;21.42;;;;;;;;;;5029866;28;20021;-64
2021/01/02 07:11:20;;;;;;;50.05;19.15;;;;;;;;;;5030369;28;20017;-64
2021/01/02 07:13:45;;;;;;;48.58;19.95;;;;;;;;;;5029438;28;20025;-63
2021/01/02 07:16:29;;;;;;;46.28;18.40;;;;;;;;;;5030092;28;20640;-64
2021/01/02 07:18:54;;;;;;;48.22;20.73;;;;;;;;;;5029503;28;20053;-64
2021/01/02 07:21:32;;;;;;;46.97;19.65;;;;;;;;;;5030255;28;20068;-63
2021/01/02 07:24:17;;;;;;;54.33;20.90;;;;;;;;;;5030201;28;20428;-64
2021/01/02 07:26:42;;;;;;;40.85;15.07;;;;;;;;;;5029811;28;20027;-64
2021/01/02 07:29:15;;;;;;;51.90;19.48;;;;;;;;;;5029395;28;20087;-64
2021/01/02 07:31:41;;;;;;;37.53;15.68;;;;;;;;;;5029955;28;20037;-64
2021/01/02 07:34:14;;;;;;;50.17;17.90;;;;;;;;;;5030270;28;20021;-65
2021/01/02 07:36:40;;;;;;;36.55;13.27;;;;;;;;;;5030301;28;20462;-65
2021/01/02 07:39:06;;;;;;;51.92;18.67;;;;;;;;;;5029345;28;20037;-65
2021/01/02 07:41:32;;;;;;;52.17;21.10;;;;;;;;;;5029965;28;20028;-65
2021/01/02 07:43:58;;;;;;;46.90;17.90;;;;;;;;;;5029650;28;20071;-66
2021/01/02 07:46:23;;;;;;;47.45;16.45;;;;;;;;;;5025102;28;20033;-65
2021/01/02 07:48:53;;;;;;;45.83;17.85;;;;;;;;;;5028261;28;20018;-65
2021/01/02 07:51:18;;;;;;;50.22;21.85;;;;;;;;;;5029794;28;20025;-65
2021/01/02 07:53:50;;;;;;;47.65;20.52;;;;;;;;;;5029425;28;20029;-65
2021/01/02 07:56:31;;;;;;;52.78;20.58;;;;;;;;;;5029173;28;20029;-65
2021/01/02 07:58:56;;;;;;;;;;;;;;;;;;5028471;28;20776;-65
2021/01/02 08:01:21;;;;;;;45.03;17.65;;;;;;;;;;5028580;28;20461;-66
2021/01/02 08:03:46;;;;;;;52.90;21.00;;;;;;;;;;5028811;28;20112;-65
2021/01/02 08:06:15;;;;;;;54.60;20.67;;;;;;;;;;5029508;28;20040;-66
2021/01/02 08:08:40;;;;;;;55.00;21.50;;;;;;;;;;5029457;28;20021;-66
2021/01/02 08:11:14;;;;;;;49.97;22.30;;;;;;;;;;5029666;28;20028;-66
2021/01/02 08:13:39;;;;;;;55.53;20.55;;;;;;;;;;5028664;28;20100;-65
2021/01/02 08:16:04;;;;;;;51.15;19.50;;;;;;;;;;5028859;28;20096;-66
2021/01/02 08:18:30;;;;;;;59.88;20.70;;;;;;;;;;5028826;28;20104;-65
2021/01/02 08:21:01;;;;;;;51.10;20.55;;;;;;;;;;5028984;28;20397;-65
2021/01/02 08:23:26;;;;;;;47.15;19.08;;;;;;;;;;5029944;28;20083;-66
2021/01/02 08:25:53;;;;;;;55.30;20.85;;;;;;;;;;5030909;28;20033;-65
2021/01/02 08:28:18;;;;;;;45.80;20.15;;;;;;;;;;5033446;28;20474;-66
2021/01/02 08:30:43;;;;;;;44.67;19.67;;;;;;;;;;5032855;28;20048;-65
2021/01/02 08:33:11;;;;;;;44.67;20.02;;;;;;;;;;5032588;28;20498;-65
2021/01/02 08:35:42;;;;;;;54.65;20.23;;;;;;;;;;5032813;28;20029;-65
2021/01/02 08:38:08;;;;;;;46.33;20.70;;;;;;;;;;5032481;28;20115;-66
2021/01/02 08:40:39;;;;;;;51.17;21.52;;;;;;;;;;5033240;28;20694;-65
2021/01/02 08:43:05;;;;;;;52.22;21.77;;;;;;;;;;5033033;28;20389;-65
2021/01/02 08:45:31;;;;;;;40.17;17.92;;;;;;;;;;5033014;28;20028;-65
2021/01/02 08:48:05;;;;;;;49.90;18.27;;;;;;;;;;5032666;28;20013;-66
2021/01/02 08:50:30;;;;;;;46.78;19.05;;;;;;;;;;5031563;28;20017;-65
2021/01/02 08:52:55;;;;;;;49.42;21.27;;;;;;;;;;5032692;28;20378;-65
2021/01/02 08:55:21;;;;;;;35.67;15.25;;;;;;;;;;5032995;28;20069;-65
2021/01/02 08:57:50;;;;;;;43.30;17.88;;;;;;;;;;5032324;28;20036;-67
2021/01/02 09:00:15;;;;;;;49.00;18.63;;;;;;;;;;5032589;28;20033;-65
2021/01/02 09:02:42;;;;;;;48.05;17.15;;;;;;;;;;5031060;28;20043;-67
2021/01/02 09:05:11;;;;;;;51.53;20.45;;;;;;;;;;5032244;28;20017;-64
2021/01/02 09:07:37;;;;;;;48.90;19.70;;;;;;;;;;5032454;28;20017;-65
2021/01/02 09:10:16;;;;;;;45.20;19.15;;;;;;;;;;5032633;28;20039;-65
2021/01/02 09:12:41;;;;;;;54.00;21.48;;;;;;;;;;5031785;28;20543;-66
2021/01/02 09:15:07;;;;;;;50.35;20.30;;;;;;;;;;5030514;28;20049;-65
2021/01/02 09:17:45;;;;;;;59.40;20.75;;;;;;;;;;5031979;28;20044;-64
2021/01/02 09:20:16;;;;;;;57.35;21.88;;;;;;;;;;5032435;28;20013;-65
2021/01/02 09:22:51;;;;;;;52.22;19.10;;;;;;;;;;5032449;28;20027;-65
2021/01/02 09:25:17;;;;;;;52.50;22.85;;;;;;;;;;5032145;28;20030;-65
2021/01/02 09:27:45;;;;;;;34.67;13.85;;;;;;;;;;5031231;28;20020;-65
2021/01/02 09:30:10;;;;;;;52.90;19.48;;;;;;;;;;5031625;28;20088;-64
2021/01/02 09:32:38;;;;;;;43.15;18.33;;;;;;;;;;5032031;28;20113;-66
2021/01/02 09:35:04;;;;;;;35.78;14.50;;;;;;;;;;5059652;22;20151;-67
2021/01/02 09:37:29;;;;;;;54.53;20.90;;;;;;;;;;5050927;28;20528;-67
2021/01/02 09:40:13;;;;;;;53.35;20.92;;;;;;;;;;5050312;28;20027;-67
2021/01/02 09:42:38;;;;;;;45.85;19.30;;;;;;;;;;5045501;28;20025;-67
2021/01/02 09:45:03;;;;;;;40.28;17.38;;;;;;;;;;5049160;28;20024;-68
2021/01/02 09:47:28;;;;;;;47.75;20.55;;;;;;;;;;5049604;28;20040;-69
2021/01/02 09:49:54;;;;;;;48.35;21.45;;;;;;;;;;5049770;28;20037;-68
2021/01/02 09:52:19;;;;;;;52.73;22.17;;;;;;;;;;5049859;28;20090;-68
2021/01/02 09:54:44;;;;;;;53.28;22.15;;;;;;;;;;5049680;28;20256;-68
2021/01/02 09:57:09;;;;;;;55.83;22.17;;;;;;;;;;5048479;28;20311;-66
2021/01/02 09:59:34;;;;;;;45.40;19.43;;;;;;;;;;5049584;28;20116;-68
2021/01/02 10:02:00;;;;;;;51.90;22.30;;;;;;;;;;5048411;28;20271;-69
2021/01/02 10:04:25;;;;;;;47.05;19.92;;;;;;;;;;5047581;28;20277;-66
2021/01/02 10:06:50;;;;;;;51.78;20.60;;;;;;;;;;5049492;28;20025;-66
2021/01/02 10:09:15;;;;;;;43.30;19.10;;;;;;;;;;5050479;28;20377;-66
2021/01/02 10:11:41;;;;;;;49.03;19.57;;;;;;;;;;5050279;28;20493;-67
2021/01/02 10:14:06;;;;;;;39.38;16.85;;;;;;;;;;5047826;28;20279;-67
2021/01/02 10:16:31;;;;;;;48.00;20.77;;;;;;;;;;5049068;28;20102;-67
2021/01/02 10:18:57;;;;;;;43.87;20.30;;;;;;;;;;5049604;28;20275;-68
2021/01/02 10:21:23;;;;;;;43.40;20.45;;;;;;;;;;5050355;28;20331;-67
2021/01/02 10:23:48;;;;;;;48.03;18.92;;;;;;;;;;5048489;28;20480;-67
2021/01/02 10:26:23;;;;;;;43.17;20.50;;;;;;;;;;5048686;28;20028;-67
2021/01/02 10:28:48;;;;;;;43.75;20.23;;;;;;;;;;5052821;28;20263;-67
2021/01/02 10:31:20;;;;;;;46.20;20.70;;;;;;;;;;5049172;28;20492;-66
2021/01/02 10:33:46;;;;;;;47.63;21.50;;;;;;;;;;5045345;28;20067;-66
2021/01/02 10:36:11;;;;;;;44.63;21.27;;;;;;;;;;5048301;28;20033;-67
2021/01/02 10:38:36;;;;;;;47.08;21.05;;;;;;;;;;5048863;28;20063;-68
2021/01/02 10:41:02;;;;;;;42.80;18.63;;;;;;;;;;5044386;28;20072;-67
2021/01/02 10:43:27;;;;;;;39.92;17.60;;;;;;;;;;5043551;28;20555;-67
2021/01/02 10:45:52;;;;;;;39.88;17.60;;;;;;;;;;5047870;28;20013;-67
2021/01/02 10:48:17;;;;;;;46.25;19.55;;;;;;;;;;5050684;28;20017;-67
2021/01/02 10:50:42;;;;;;;45.37;19.33;;;;;;;;;;5051599;28;20430;-67
2021/01/02 10:53:07;;;;;;;39.45;17.38;;;;;;;;;;5051250;28;20266;-67
2021/01/02 10:55:33;;;;;;;33.27;13.40;;;;;;;;;;5051802;28;20061;-67
2021/01/02 10:57:58;;;;;;;34.60;16.98;;;;;;;;;;5049085;28;20264;-67
2021/01/02 11:00:23;;;;;;;37.10;14.90;;;;;;;;;;5044926;28;20374;-67
2021/01/02 11:02:48;;;;;;;37.58;18.67;;;;;;;;;;5048478;28;20052;-67
2021/01/02 11:05:14;;;;;;;44.40;20.30;;;;;;;;;;5048165;28;20021;-67
2021/01/02 11:07:39;;;;;;;32.58;15.85;;;;;;;;;;5048705;28;20267;-67
2021/01/02 11:10:05;;;;;;;42.03;19.17;;;;;;;;;;5047001;28;20103;-67
2021/01/02 11:12:30;;;;;;;33.10;15.07;;;;;;;;;;5050931;28;20125;-67
2021/01/02 11:14:58;;;;;;;40.55;17.95;;;;;;;;;;5046614;28;20547;-67
2021/01/02 11:17:23;;;;;;;47.90;17.90;;;;;;;;;;5068777;28;20024;-67
2021/01/02 11:19:48;;;;;;;39.05;15.82;;;;;;;;;;5049412;28;20147;-67
2021/01/02 11:22:13;;;;;;;32.38;16.40;;;;;;;;;;5052786;28;20365;-67
2021/01/02 11:24:39;;;;;;;37.78;16.13;;;;;;;;;;5047935;28;20473;-67
2021/01/02 11:27:05;;;;;;;37.72;17.05;;;;;;;;;;5040742;28;20025;-67
2021/01/02 11:29:30;;;;;;;33.45;14.60;;;;;;;;;;5029108;28;20052;-67
2021/01/02 11:31:56;;;;;;;29.13;13.05;;;;;;;;;;5043497;28;20021;-67
2021/01/02 11:34:22;;;;;;;26.30;13.13;;;;;;;;;;5064781;28;20037;-67
2021/01/02 11:36:49;;;;;;;24.05;7.68;;;;;;;;;;5053288;28;20078;-67
2021/01/02 11:39:14;;;;;;;13.75;5.40;;;;;;;;;;5048379;28;20029;-68
2021/01/02 11:41:40;;;;;;;34.58;13.98;;;;;;;;;;5055323;28;20029;-68
2021/01/02 11:44:06;;;;;;;31.08;13.02;;;;;;;;;;5049105;28;20039;-68
2021/01/02 11:46:36;;;;;;;35.33;15.65;;;;;;;;;;5061962;28;20029;-68
2021/01/02 11:49:01;;;;;;;34.27;15.27;;;;;;;;;;5039125;28;20018;-68
2021/01/02 11:51:27;;;;;;;32.75;15.88;;;;;;;;;;5048136;28;20025;-68
2021/01/02 11:53:52;;;;;;;42.47;17.27;;;;;;;;;;5048373;28;20039;-68
2021/01/02 11:56:18;;;;;;;36.45;17.27;;;;;;;;;;5050597;28;20021;-68
2021/01/02 11:58:44;;;;;;;35.80;16.20;;;;;;;;;;5048159;28;20435;-68
2021/01/02 12:01:09;;;;;;;29.23;16.13;;;;;;;;;;5052229;28;20426;-67
2021/01/02 12:03:34;;;;;;;30.97;14.77;;;;;;;;;;5055801;28;20025;-67
2021/01/02 12:05:59;;;;;;;31.53;14.70;;;;;;;;;;5058661;28;20286;-67
2021/01/02 12:08:24;;;;;;;23.90;11.93;;;;;;;;;;5058997;28;20620;-67
2021/01/02 12:10:49;;;;;;;27.70;14.73;;;;;;;;;;5052228;28;20356;-68
2021/01/02 12:13:15;;;;;;;28.35;14.73;;;;;;;;;;5062717;28;20871;-68
2021/01/02 12:15:40;;;;;;;32.67;13.75;;;;;;;;;;5056210;28;20032;-67
2021/01/02 12:18:05;;;;;;;33.40;15.07;;;;;;;;;;5053987;28;20097;-67
2021/01/02 12:20:31;;;;;;;30.35;15.13;;;;;;;;;;5051475;28;20016;-67
2021/01/02 12:22:56;;;;;;;29.17;13.57;;;;;;;;;;5051126;28;20028;-67
2021/01/02 12:25:23;;;;;;;32.08;15.15;;;;;;;;;;5045518;28;20043;-67
2021/01/02 12:27:48;;;;;;;28.45;13.30;;;;;;;;;;5048100;28;20028;-67
2021/01/02 12:30:13;;;;;;;28.83;14.32;;;;;;;;;;5052601;28;20029;-67
2021/01/02 12:32:39;;;;;;;29.17;14.75;;;;;;;;;;5041689;28;20119;-67
2021/01/02 12:35:04;;;;;;;28.50;13.37;;;;;;;;;;5044713;28;20459;-67
2021/01/02 12:37:29;;;;;;;23.90;11.45;;;;;;;;;;5048989;28;20267;-67
2021/01/02 12:39:54;;;;;;;26.23;11.27;;;;;;;;;;5048429;28;20017;-67
2021/01/02 12:42:20;;;;;;;25.83;12.43;;;;;;;;;;5048299;28;20473;-67
2021/01/02 12:44:49;;;;;;;29.17;14.30;;;;;;;;;;5049472;28;20482;-67
2021/01/02 12:47:15;;;;;;;27.52;12.70;;;;;;;;;;5049200;28;20029;-67
2021/01/02 12:49:44;;;;;;;28.05;13.48;;;;;;;;;;5049518;28;20048;-67
2021/01/02 12:52:09;;;;;;;30.67;12.90;;;;;;;;;;5049766;28;20028;-67
2021/01/02 12:54:35;;;;;;;26.38;12.77;;;;;;;;;;5049863;28;20025;-67
2021/01/02 12:57:00;;;;;;;22.63;11.70;;;;;;;;;;5049262;28;20025;-67
2021/01/02 12:59:30;;;;;;;22.15;10.68;;;;;;;;;;5049826;28;20033;-67
2021/01/02 13:01:57;;;;;;;30.80;13.80;;;;;;;;;;5039893;28;20033;-67
2021/01/02 13:04:22;;;;;;;32.85;14.15;;;;;;;;;;5049752;28;20059;-67
2021/01/02 13:06:49;;;;;;;22.92;8.80;;;;;;;;;;5049589;28;20056;-67
2021/01/02 13:09:14;;;;;;;29.45;13.90;;;;;;;;;;5049633;28;20096;-67
2021/01/02 13:11:45;;;;;;;28.53;13.57;;;;;;;;;;5050847;28;20529;-67
2021/01/02 13:14:11;;;;;;;29.50;12.45;;;;;;;;;;5052779;28;20353;-67
2021/01/02 13:16:36;;;;;;;29.57;13.00;;;;;;;;;;5051783;28;20102;-67
2021/01/02 13:19:01;;;;;;;30.27;13.50;;;;;;;;;;5052837;28;20763;-67
2021/01/02 13:21:26;;;;;;;28.60;12.48;;;;;;;;;;5051862;28;20078;-67
2021/01/02 13:23:51;;;;;;;36.67;15.43;;;;;;;;;;5051211;28;20047;-67
2021/01/02 13:26:16;;;;;;;30.23;13.83;;;;;;;;;;5048365;28;20299;-66
2021/01/02 13:28:42;;;;;;;29.30;15.40;;;;;;;;;;5054282;28;20321;-67
2021/01/02 13:31:08;;;;;;;32.45;13.20;;;;;;;;;;5052188;28;20275;-66
2021/01/02 13:33:33;;;;;;;31.58;15.00;;;;;;;;;;5051598;28;20029;-66
2021/01/02 13:35:59;;;;;;;32.88;14.98;;;;;;;;;;5056757;28;20036;-66
2021/01/02 13:38:24;;;;;;;22.05;9.43;;;;;;;;;;5053892;28;20029;-66
2021/01/02 13:40:49;;;;;;;25.15;11.68;;;;;;;;;;5051231;28;20021;-66
2021/01/02 13:43:14;;;;;;;22.95;10.68;;;;;;;;;;5051312;28;20112;-66
2021/01/02 13:45:40;;;;;;;24.37;11.33;;;;;;;;;;5049256;28;20075;-66
2021/01/02 13:48:05;;;;;;;24.97;10.80;;;;;;;;;;5052693;28;20264;-67
2021/01/02 13:50:30;;;;;;;30.70;15.30;;;;;;;;;;5052471;28;20289;-66
2021/01/02 13:52:55;;;;;;;25.98;9.05;;;;;;;;;;5050158;28;20009;-66
2021/01/02 13:55:20;;;;;;;35.20;14.30;;;;;;;;;;5045421;28;20054;-69
2021/01/02 13:57:46;;;;;;;29.07;13.53;;;;;;;;;;5049717;28;20635;-67
2021/01/02 14:00:11;;;;;;;24.15;9.93;;;;;;;;;;5055978;28;20266;-67
2021/01/02 14:02:36;;;;;;;34.67;14.38;;;;;;;;;;5051749;28;20021;-67
2021/01/02 14:05:02;;;;;;;30.60;14.73;;;;;;;;;;5049563;28;20067;-68
2021/01/02 14:07:27;;;;;;;29.95;15.38;;;;;;;;;;5042690;28;20108;-67
2021/01/02 14:09:52;;;;;;;26.93;10.97;;;;;;;;;;5045207;28;20564;-67
2021/01/02 14:12:18;;;;;;;25.23;11.10;;;;;;;;;;5050812;28;20263;-67
2021/01/02 14:14:44;;;;;;;32.72;15.20;;;;;;;;;;5051353;28;20114;-70
2021/01/02 14:17:10;;;;;;;33.88;15.13;;;;;;;;;;5051016;28;20083;-72
2021/01/02 14:19:37;;;;;;;36.00;16.58;;;;;;;;;;5050942;28;20055;-67
2021/01/02 14:22:02;;;;;;;34.47;14.02;;;;;;;;;;5051154;28;20037;-67